ミラノ/マルペンサ の空港の天気 - METARとTAF

ミラノ・マルペンサ国際空港 ( LIMC / MXP ) - イタリア ミラノ
飛行場実況気象(Metar)
観測時間01/18 10:20 CET (01/18 09:20 UTC)
風向・風速北 4m/s
視程10km以上
天気現象
なし
気温5℃
湿度65%
気圧1015hPa
METARLIMC 180920Z 36007KT CAVOK 05/M01 Q1015 NOSIG
過去の天気等 Google飛行場航空写真 Wunderground天気予報

過去48時間のMETAR

飛行場予報(TAF)
発表時間: 1/18 06:00 CET (1/18 05:00 UTC)
予報対象時間: 18日7時 CET ~ 19日13時 CET
風向・風速不定 3m/s
視程10km以上
なし
19日1時 CET ~ 19日9時 CET に一時的に
視程3,000m
天気現象散在した霧
TAF LIMC 180500Z 1806/1912 VRB05KT CAVOK
TEMPO 1900/1908 3000 BCFG